sensor_id;sensor_type;location;lat;lon;timestamp;temperature;humidity
15707;DHT22;7953;54.302;10.128;2023-06-04T00:02:04;11.40;99.90
15707;DHT22;7953;54.302;10.128;2023-06-04T00:04:31;11.40;99.90
15707;DHT22;7953;54.302;10.128;2023-06-04T00:06:59;11.40;99.90
15707;DHT22;7953;54.302;10.128;2023-06-04T00:09:26;11.30;99.90
15707;DHT22;7953;54.302;10.128;2023-06-04T00:11:53;11.30;99.90
15707;DHT22;7953;54.302;10.128;2023-06-04T00:14:20;11.30;99.90
15707;DHT22;7953;54.302;10.128;2023-06-04T00:16:47;11.30;99.90
15707;DHT22;7953;54.302;10.128;2023-06-04T00:19:14;11.20;99.90
15707;DHT22;7953;54.302;10.128;2023-06-04T00:21:40;11.20;99.90
15707;DHT22;7953;54.302;10.128;2023-06-04T00:24:09;11.20;99.90
15707;DHT22;7953;54.302;10.128;2023-06-04T00:26:38;11.10;99.90
15707;DHT22;7953;54.302;10.128;2023-06-04T00:29:05;11.10;99.90
15707;DHT22;7953;54.302;10.128;2023-06-04T00:31:32;11.10;99.90
15707;DHT22;7953;54.302;10.128;2023-06-04T00:33:59;11.10;99.90
15707;DHT22;7953;54.302;10.128;2023-06-04T00:36:26;11.00;99.90
15707;DHT22;7953;54.302;10.128;2023-06-04T00:38:52;11.00;99.90
15707;DHT22;7953;54.302;10.128;2023-06-04T00:41:21;11.00;99.90
15707;DHT22;7953;54.302;10.128;2023-06-04T00:43:48;10.90;99.90
15707;DHT22;7953;54.302;10.128;2023-06-04T00:46:22;10.90;99.90
15707;DHT22;7953;54.302;10.128;2023-06-04T00:48:51;10.90;99.90
15707;DHT22;7953;54.302;10.128;2023-06-04T00:51:18;10.80;99.90
15707;DHT22;7953;54.302;10.128;2023-06-04T00:53:45;10.80;99.90
15707;DHT22;7953;54.302;10.128;2023-06-04T00:56:13;10.80;99.90
15707;DHT22;7953;54.302;10.128;2023-06-04T00:58:41;10.80;99.90
15707;DHT22;7953;54.302;10.128;2023-06-04T01:01:17;10.70;99.90
15707;DHT22;7953;54.302;10.128;2023-06-04T01:03:50;10.70;99.90
15707;DHT22;7953;54.302;10.128;2023-06-04T01:06:22;10.70;99.90
15707;DHT22;7953;54.302;10.128;2023-06-04T01:08:53;10.70;99.90
15707;DHT22;7953;54.302;10.128;2023-06-04T01:11:33;10.60;99.90
15707;DHT22;7953;54.302;10.128;2023-06-04T01:14:02;10.60;99.90
15707;DHT22;7953;54.302;10.128;2023-06-04T01:16:34;10.60;99.90
15707;DHT22;7953;54.302;10.128;2023-06-04T01:19:02;10.50;99.90
15707;DHT22;7953;54.302;10.128;2023-06-04T01:21:35;10.50;99.90
15707;DHT22;7953;54.302;10.128;2023-06-04T01:24:05;10.50;99.90
15707;DHT22;7953;54.302;10.128;2023-06-04T01:26:32;10.40;99.90
15707;DHT22;7953;54.302;10.128;2023-06-04T01:28:59;10.40;99.90
15707;DHT22;7953;54.302;10.128;2023-06-04T01:31:28;10.40;99.90
15707;DHT22;7953;54.302;10.128;2023-06-04T01:33:58;10.40;99.90
15707;DHT22;7953;54.302;10.128;2023-06-04T01:36:25;10.40;99.90
15707;DHT22;7953;54.302;10.128;2023-06-04T01:38:52;10.40;99.90
15707;DHT22;7953;54.302;10.128;2023-06-04T01:41:19;10.30;99.90
15707;DHT22;7953;54.302;10.128;2023-06-04T01:43:46;10.30;99.90
15707;DHT22;7953;54.302;10.128;2023-06-04T01:46:13;10.30;99.90
15707;DHT22;7953;54.302;10.128;2023-06-04T01:48:41;10.20;99.90
15707;DHT22;7953;54.302;10.128;2023-06-04T01:51:08;10.20;99.90
15707;DHT22;7953;54.302;10.128;2023-06-04T01:53:35;10.20;99.90
15707;DHT22;7953;54.302;10.128;2023-06-04T01:56:02;10.20;99.90
15707;DHT22;7953;54.302;10.128;2023-06-04T01:58:29;10.10;99.90
15707;DHT22;7953;54.302;10.128;2023-06-04T02:00:57;10.10;99.90
15707;DHT22;7953;54.302;10.128;2023-06-04T02:03:25;10.10;99.90
15707;DHT22;7953;54.302;10.128;2023-06-04T02:05:54;10.10;99.90
15707;DHT22;7953;54.302;10.128;2023-06-04T02:08:21;10.00;99.90
15707;DHT22;7953;54.302;10.128;2023-06-04T02:10:51;10.00;99.90
15707;DHT22;7953;54.302;10.128;2023-06-04T02:13:18;10.00;99.90
15707;DHT22;7953;54.302;10.128;2023-06-04T02:15:45;10.00;99.90
15707;DHT22;7953;54.302;10.128;2023-06-04T02:18:14;9.90;99.90
15707;DHT22;7953;54.302;10.128;2023-06-04T02:20:42;9.80;99.90
15707;DHT22;7953;54.302;10.128;2023-06-04T02:23:12;9.90;99.90
15707;DHT22;7953;54.302;10.128;2023-06-04T02:25:39;9.90;99.90
15707;DHT22;7953;54.302;10.128;2023-06-04T02:28:06;9.90;99.90
15707;DHT22;7953;54.302;10.128;2023-06-04T02:30:33;9.90;99.90
15707;DHT22;7953;54.302;10.128;2023-06-04T02:33:00;9.90;99.90
15707;DHT22;7953;54.302;10.128;2023-06-04T02:35:27;9.80;99.90
15707;DHT22;7953;54.302;10.128;2023-06-04T02:37:54;9.80;99.90
15707;DHT22;7953;54.302;10.128;2023-06-04T02:40:24;9.80;99.90
15707;DHT22;7953;54.302;10.128;2023-06-04T02:42:52;9.70;99.90
15707;DHT22;7953;54.302;10.128;2023-06-04T02:45:19;9.70;99.90
15707;DHT22;7953;54.302;10.128;2023-06-04T02:47:46;9.70;99.90
15707;DHT22;7953;54.302;10.128;2023-06-04T02:50:14;9.60;99.90
15707;DHT22;7953;54.302;10.128;2023-06-04T02:52:42;9.60;99.90
15707;DHT22;7953;54.302;10.128;2023-06-04T02:55:09;9.60;99.90
15707;DHT22;7953;54.302;10.128;2023-06-04T02:57:39;9.60;99.90
15707;DHT22;7953;54.302;10.128;2023-06-04T03:00:08;9.60;99.90
15707;DHT22;7953;54.302;10.128;2023-06-04T03:02:39;9.50;99.90
15707;DHT22;7953;54.302;10.128;2023-06-04T03:05:07;9.50;99.90
15707;DHT22;7953;54.302;10.128;2023-06-04T03:07:34;9.50;99.90
15707;DHT22;7953;54.302;10.128;2023-06-04T03:10:01;9.50;99.90
15707;DHT22;7953;54.302;10.128;2023-06-04T03:12:28;9.50;99.90
15707;DHT22;7953;54.302;10.128;2023-06-04T03:14:56;9.40;99.90
15707;DHT22;7953;54.302;10.128;2023-06-04T03:17:23;9.50;99.90
15707;DHT22;7953;54.302;10.128;2023-06-04T03:19:50;9.50;99.90
15707;DHT22;7953;54.302;10.128;2023-06-04T03:22:17;9.50;99.90
15707;DHT22;7953;54.302;10.128;2023-06-04T03:24:44;9.50;99.90
15707;DHT22;7953;54.302;10.128;2023-06-04T03:27:11;9.50;99.90
15707;DHT22;7953;54.302;10.128;2023-06-04T03:29:38;9.50;99.90
15707;DHT22;7953;54.302;10.128;2023-06-04T03:32:07;9.50;99.90
15707;DHT22;7953;54.302;10.128;2023-06-04T03:34:34;9.50;99.90
15707;DHT22;7953;54.302;10.128;2023-06-04T03:37:01;9.50;99.90
15707;DHT22;7953;54.302;10.128;2023-06-04T03:39:28;9.60;99.90
15707;DHT22;7953;54.302;10.128;2023-06-04T03:41:55;9.50;99.90
15707;DHT22;7953;54.302;10.128;2023-06-04T03:44:22;9.50;99.90
15707;DHT22;7953;54.302;10.128;2023-06-04T03:46:49;9.50;99.90
15707;DHT22;7953;54.302;10.128;2023-06-04T03:49:17;9.60;99.90
15707;DHT22;7953;54.302;10.128;2023-06-04T03:51:45;9.60;99.90
15707;DHT22;7953;54.302;10.128;2023-06-04T03:54:12;9.60;99.90
15707;DHT22;7953;54.302;10.128;2023-06-04T03:56:43;9.60;99.90
15707;DHT22;7953;54.302;10.128;2023-06-04T03:59:10;9.60;99.90
15707;DHT22;7953;54.302;10.128;2023-06-04T04:01:37;9.60;99.90
15707;DHT22;7953;54.302;10.128;2023-06-04T04:04:04;9.60;99.90
15707;DHT22;7953;54.302;10.128;2023-06-04T04:06:32;9.70;99.90
15707;DHT22;7953;54.302;10.128;2023-06-04T04:09:01;9.70;99.90
15707;DHT22;7953;54.302;10.128;2023-06-04T04:11:28;9.80;99.90
15707;DHT22;7953;54.302;10.128;2023-06-04T04:13:56;9.80;99.90
15707;DHT22;7953;54.302;10.128;2023-06-04T04:16:23;9.80;99.90
15707;DHT22;7953;54.302;10.128;2023-06-04T04:18:50;9.80;99.90
15707;DHT22;7953;54.302;10.128;2023-06-04T04:21:17;9.90;99.90
15707;DHT22;7953;54.302;10.128;2023-06-04T04:23:45;9.90;99.90
15707;DHT22;7953;54.302;10.128;2023-06-04T04:26:12;9.90;99.90
15707;DHT22;7953;54.302;10.128;2023-06-04T04:28:42;9.90;99.90
15707;DHT22;7953;54.302;10.128;2023-06-04T04:31:09;10.00;99.90
15707;DHT22;7953;54.302;10.128;2023-06-04T04:33:36;10.00;99.90
15707;DHT22;7953;54.302;10.128;2023-06-04T04:36:05;10.00;99.90
15707;DHT22;7953;54.302;10.128;2023-06-04T04:38:34;10.10;99.90
15707;DHT22;7953;54.302;10.128;2023-06-04T04:41:02;10.10;99.90
15707;DHT22;7953;54.302;10.128;2023-06-04T04:43:31;10.20;99.90
15707;DHT22;7953;54.302;10.128;2023-06-04T04:45:58;10.20;99.90
15707;DHT22;7953;54.302;10.128;2023-06-04T04:48:25;10.30;99.90
15707;DHT22;7953;54.302;10.128;2023-06-04T04:50:52;10.30;99.90
15707;DHT22;7953;54.302;10.128;2023-06-04T04:53:19;10.30;99.90
15707;DHT22;7953;54.302;10.128;2023-06-04T04:55:46;10.40;99.90
15707;DHT22;7953;54.302;10.128;2023-06-04T04:58:14;10.40;99.90
15707;DHT22;7953;54.302;10.128;2023-06-04T05:00:41;10.40;99.90
15707;DHT22;7953;54.302;10.128;2023-06-04T05:03:08;10.50;99.90
15707;DHT22;7953;54.302;10.128;2023-06-04T05:05:35;10.50;99.90
15707;DHT22;7953;54.302;10.128;2023-06-04T05:08:03;10.50;99.90
15707;DHT22;7953;54.302;10.128;2023-06-04T05:10:30;10.60;99.90
15707;DHT22;7953;54.302;10.128;2023-06-04T05:12:58;10.60;99.90
15707;DHT22;7953;54.302;10.128;2023-06-04T05:15:27;10.70;99.90
15707;DHT22;7953;54.302;10.128;2023-06-04T05:17:55;10.70;99.90
15707;DHT22;7953;54.302;10.128;2023-06-04T05:20:22;10.80;99.90
15707;DHT22;7953;54.302;10.128;2023-06-04T05:22:49;10.80;99.90
15707;DHT22;7953;54.302;10.128;2023-06-04T05:25:16;10.90;99.90
15707;DHT22;7953;54.302;10.128;2023-06-04T05:27:43;10.90;99.90
15707;DHT22;7953;54.302;10.128;2023-06-04T05:30:11;11.00;99.90
15707;DHT22;7953;54.302;10.128;2023-06-04T05:32:40;11.00;99.90
15707;DHT22;7953;54.302;10.128;2023-06-04T05:35:08;11.10;99.90
15707;DHT22;7953;54.302;10.128;2023-06-04T05:37:37;11.10;99.90
15707;DHT22;7953;54.302;10.128;2023-06-04T05:40:06;11.20;99.90
15707;DHT22;7953;54.302;10.128;2023-06-04T05:42:35;11.20;99.90
15707;DHT22;7953;54.302;10.128;2023-06-04T05:45:02;11.30;99.90
15707;DHT22;7953;54.302;10.128;2023-06-04T05:47:29;11.30;99.90
15707;DHT22;7953;54.302;10.128;2023-06-04T05:49:58;11.30;99.90
15707;DHT22;7953;54.302;10.128;2023-06-04T05:52:25;11.40;99.90
15707;DHT22;7953;54.302;10.128;2023-06-04T05:54:51;11.40;99.90
15707;DHT22;7953;54.302;10.128;2023-06-04T05:57:19;11.50;99.90
15707;DHT22;7953;54.302;10.128;2023-06-04T05:59:46;11.60;99.90
15707;DHT22;7953;54.302;10.128;2023-06-04T06:02:13;11.60;99.90
15707;DHT22;7953;54.302;10.128;2023-06-04T06:04:40;11.70;99.90
15707;DHT22;7953;54.302;10.128;2023-06-04T06:07:09;11.80;99.90
15707;DHT22;7953;54.302;10.128;2023-06-04T06:09:36;11.80;99.90
15707;DHT22;7953;54.302;10.128;2023-06-04T06:12:03;11.90;99.90
15707;DHT22;7953;54.302;10.128;2023-06-04T06:14:31;12.00;99.90
15707;DHT22;7953;54.302;10.128;2023-06-04T06:16:58;12.00;99.90
15707;DHT22;7953;54.302;10.128;2023-06-04T06:19:25;12.10;99.90
15707;DHT22;7953;54.302;10.128;2023-06-04T06:21:53;12.20;99.90
15707;DHT22;7953;54.302;10.128;2023-06-04T06:24:21;12.30;99.90
15707;DHT22;7953;54.302;10.128;2023-06-04T06:26:48;12.50;99.90
15707;DHT22;7953;54.302;10.128;2023-06-04T06:29:15;12.60;99.90
15707;DHT22;7953;54.302;10.128;2023-06-04T06:31:41;12.70;99.90
15707;DHT22;7953;54.302;10.128;2023-06-04T06:34:08;12.80;99.90
15707;DHT22;7953;54.302;10.128;2023-06-04T06:36:35;12.90;99.90
15707;DHT22;7953;54.302;10.128;2023-06-04T06:39:02;13.10;99.90
15707;DHT22;7953;54.302;10.128;2023-06-04T06:41:31;13.20;99.90
15707;DHT22;7953;54.302;10.128;2023-06-04T06:43:58;13.30;99.90
15707;DHT22;7953;54.302;10.128;2023-06-04T06:46:24;13.40;99.90
15707;DHT22;7953;54.302;10.128;2023-06-04T06:48:51;13.60;99.90
15707;DHT22;7953;54.302;10.128;2023-06-04T06:51:18;13.80;99.90
15707;DHT22;7953;54.302;10.128;2023-06-04T06:53:45;13.90;99.90
15707;DHT22;7953;54.302;10.128;2023-06-04T06:56:14;14.10;99.90
15707;DHT22;7953;54.302;10.128;2023-06-04T06:58:42;14.20;99.90
15707;DHT22;7953;54.302;10.128;2023-06-04T07:01:09;14.40;99.90
15707;DHT22;7953;54.302;10.128;2023-06-04T07:03:36;14.50;99.90
15707;DHT22;7953;54.302;10.128;2023-06-04T07:06:05;14.70;99.90
15707;DHT22;7953;54.302;10.128;2023-06-04T07:08:32;14.90;99.90
15707;DHT22;7953;54.302;10.128;2023-06-04T07:10:59;15.10;99.90
15707;DHT22;7953;54.302;10.128;2023-06-04T07:13:26;15.30;99.90
15707;DHT22;7953;54.302;10.128;2023-06-04T07:15:54;15.50;99.90
15707;DHT22;7953;54.302;10.128;2023-06-04T07:18:21;15.60;99.90
15707;DHT22;7953;54.302;10.128;2023-06-04T07:20:48;15.70;99.90
15707;DHT22;7953;54.302;10.128;2023-06-04T07:23:15;15.90;99.90
15707;DHT22;7953;54.302;10.128;2023-06-04T07:25:42;16.20;99.90
15707;DHT22;7953;54.302;10.128;2023-06-04T07:28:08;16.50;99.90
15707;DHT22;7953;54.302;10.128;2023-06-04T07:30:35;16.70;99.90
15707;DHT22;7953;54.302;10.128;2023-06-04T07:33:04;17.00;99.90
15707;DHT22;7953;54.302;10.128;2023-06-04T07:35:31;17.30;99.90
15707;DHT22;7953;54.302;10.128;2023-06-04T07:37:58;17.60;99.90
15707;DHT22;7953;54.302;10.128;2023-06-04T07:40:25;18.00;99.90
15707;DHT22;7953;54.302;10.128;2023-06-04T07:42:52;18.30;99.90
15707;DHT22;7953;54.302;10.128;2023-06-04T07:45:19;18.60;99.90
15707;DHT22;7953;54.302;10.128;2023-06-04T07:47:46;18.80;99.90
15707;DHT22;7953;54.302;10.128;2023-06-04T07:50:14;19.00;99.90
15707;DHT22;7953;54.302;10.128;2023-06-04T07:52:41;19.20;99.90
15707;DHT22;7953;54.302;10.128;2023-06-04T07:55:08;19.50;99.90
15707;DHT22;7953;54.302;10.128;2023-06-04T07:57:35;19.90;99.90
15707;DHT22;7953;54.302;10.128;2023-06-04T08:00:03;20.20;99.90
15707;DHT22;7953;54.302;10.128;2023-06-04T08:02:31;20.50;99.90
15707;DHT22;7953;54.302;10.128;2023-06-04T08:04:58;20.80;99.90
15707;DHT22;7953;54.302;10.128;2023-06-04T08:07:26;20.90;99.90
15707;DHT22;7953;54.302;10.128;2023-06-04T08:09:53;21.10;99.90
15707;DHT22;7953;54.302;10.128;2023-06-04T08:12:21;21.00;99.90
15707;DHT22;7953;54.302;10.128;2023-06-04T08:14:48;21.10;99.90
15707;DHT22;7953;54.302;10.128;2023-06-04T08:17:16;21.40;99.90
15707;DHT22;7953;54.302;10.128;2023-06-04T08:19:42;21.70;99.90
15707;DHT22;7953;54.302;10.128;2023-06-04T08:22:09;22.10;99.90
15707;DHT22;7953;54.302;10.128;2023-06-04T08:24:38;22.40;99.90
15707;DHT22;7953;54.302;10.128;2023-06-04T08:27:06;22.60;99.90
15707;DHT22;7953;54.302;10.128;2023-06-04T08:29:33;22.80;99.90
15707;DHT22;7953;54.302;10.128;2023-06-04T08:32:01;23.00;99.90
15707;DHT22;7953;54.302;10.128;2023-06-04T08:34:28;23.20;99.90
15707;DHT22;7953;54.302;10.128;2023-06-04T08:36:55;23.40;99.90
15707;DHT22;7953;54.302;10.128;2023-06-04T08:39:22;23.60;99.90
15707;DHT22;7953;54.302;10.128;2023-06-04T08:41:52;23.70;99.90
15707;DHT22;7953;54.302;10.128;2023-06-04T08:44:21;23.80;99.90
15707;DHT22;7953;54.302;10.128;2023-06-04T08:46:51;24.00;99.90
15707;DHT22;7953;54.302;10.128;2023-06-04T08:49:19;24.20;99.90
15707;DHT22;7953;54.302;10.128;2023-06-04T08:51:48;24.30;99.90
15707;DHT22;7953;54.302;10.128;2023-06-04T08:54:15;24.20;99.90
15707;DHT22;7953;54.302;10.128;2023-06-04T08:56:42;24.30;99.90
15707;DHT22;7953;54.302;10.128;2023-06-04T08:59:11;24.40;99.90
15707;DHT22;7953;54.302;10.128;2023-06-04T09:01:39;24.30;99.90
15707;DHT22;7953;54.302;10.128;2023-06-04T09:04:10;24.40;99.90
15707;DHT22;7953;54.302;10.128;2023-06-04T09:06:38;24.70;99.90
15707;DHT22;7953;54.302;10.128;2023-06-04T09:09:09;24.80;99.90
15707;DHT22;7953;54.302;10.128;2023-06-04T09:11:39;25.00;99.90
15707;DHT22;7953;54.302;10.128;2023-06-04T09:14:08;25.00;99.90
15707;DHT22;7953;54.302;10.128;2023-06-04T09:16:47;24.90;99.90
15707;DHT22;7953;54.302;10.128;2023-06-04T09:19:14;24.90;99.90
15707;DHT22;7953;54.302;10.128;2023-06-04T09:21:51;24.70;99.90
15707;DHT22;7953;54.302;10.128;2023-06-04T09:24:18;24.60;99.90
15707;DHT22;7953;54.302;10.128;2023-06-04T09:26:46;24.70;99.90
15707;DHT22;7953;54.302;10.128;2023-06-04T09:29:14;24.50;99.90
15707;DHT22;7953;54.302;10.128;2023-06-04T09:31:41;24.60;99.90
15707;DHT22;7953;54.302;10.128;2023-06-04T09:34:09;24.50;99.90
15707;DHT22;7953;54.302;10.128;2023-06-04T09:36:36;24.40;99.90
15707;DHT22;7953;54.302;10.128;2023-06-04T09:39:15;24.40;99.90
15707;DHT22;7953;54.302;10.128;2023-06-04T09:41:41;24.70;99.90
15707;DHT22;7953;54.302;10.128;2023-06-04T09:44:09;25.00;99.90
15707;DHT22;7953;54.302;10.128;2023-06-04T09:46:36;24.70;99.90
15707;DHT22;7953;54.302;10.128;2023-06-04T09:49:04;24.80;99.90
15707;DHT22;7953;54.302;10.128;2023-06-04T09:51:32;25.00;99.90
15707;DHT22;7953;54.302;10.128;2023-06-04T09:54:02;25.20;99.90
15707;DHT22;7953;54.302;10.128;2023-06-04T09:56:29;25.40;99.90
15707;DHT22;7953;54.302;10.128;2023-06-04T09:58:58;25.70;99.90
15707;DHT22;7953;54.302;10.128;2023-06-04T10:01:26;25.90;99.90
15707;DHT22;7953;54.302;10.128;2023-06-04T10:03:54;26.10;99.90
15707;DHT22;7953;54.302;10.128;2023-06-04T10:06:23;26.20;99.90
15707;DHT22;7953;54.302;10.128;2023-06-04T10:08:52;26.40;99.90
15707;DHT22;7953;54.302;10.128;2023-06-04T10:11:26;26.60;99.90
15707;DHT22;7953;54.302;10.128;2023-06-04T10:14:00;26.80;99.90
15707;DHT22;7953;54.302;10.128;2023-06-04T10:16:29;26.90;99.90
15707;DHT22;7953;54.302;10.128;2023-06-04T10:18:57;27.00;99.90
15707;DHT22;7953;54.302;10.128;2023-06-04T10:21:26;27.10;99.90
15707;DHT22;7953;54.302;10.128;2023-06-04T10:23:55;26.70;99.90
15707;DHT22;7953;54.302;10.128;2023-06-04T10:26:22;26.70;99.90
15707;DHT22;7953;54.302;10.128;2023-06-04T10:28:49;26.80;99.90
15707;DHT22;7953;54.302;10.128;2023-06-04T10:31:17;27.10;99.90
15707;DHT22;7953;54.302;10.128;2023-06-04T10:33:44;27.40;99.90
15707;DHT22;7953;54.302;10.128;2023-06-04T10:36:18;27.50;99.90
15707;DHT22;7953;54.302;10.128;2023-06-04T10:38:46;27.60;99.90
15707;DHT22;7953;54.302;10.128;2023-06-04T10:41:16;27.70;99.90
15707;DHT22;7953;54.302;10.128;2023-06-04T10:43:43;27.80;99.90
15707;DHT22;7953;54.302;10.128;2023-06-04T10:46:12;27.80;99.90
15707;DHT22;7953;54.302;10.128;2023-06-04T10:48:46;27.80;99.90
15707;DHT22;7953;54.302;10.128;2023-06-04T10:51:12;27.90;99.90
15707;DHT22;7953;54.302;10.128;2023-06-04T10:53:40;27.90;99.90
15707;DHT22;7953;54.302;10.128;2023-06-04T10:56:06;27.90;99.90
15707;DHT22;7953;54.302;10.128;2023-06-04T10:58:35;28.00;99.90
15707;DHT22;7953;54.302;10.128;2023-06-04T11:01:02;28.00;99.90
15707;DHT22;7953;54.302;10.128;2023-06-04T11:03:35;27.90;99.90
15707;DHT22;7953;54.302;10.128;2023-06-04T11:06:03;27.90;99.90
15707;DHT22;7953;54.302;10.128;2023-06-04T11:08:40;27.50;99.90
15707;DHT22;7953;54.302;10.128;2023-06-04T11:11:11;27.30;99.90
15707;DHT22;7953;54.302;10.128;2023-06-04T11:13:40;27.30;99.90
15707;DHT22;7953;54.302;10.128;2023-06-04T11:16:17;27.50;99.90
15707;DHT22;7953;54.302;10.128;2023-06-04T11:18:54;27.60;99.90
15707;DHT22;7953;54.302;10.128;2023-06-04T11:21:21;27.70;99.90
15707;DHT22;7953;54.302;10.128;2023-06-04T11:23:48;27.90;99.90
15707;DHT22;7953;54.302;10.128;2023-06-04T11:26:15;27.70;99.90
15707;DHT22;7953;54.302;10.128;2023-06-04T11:28:48;27.70;99.90
15707;DHT22;7953;54.302;10.128;2023-06-04T11:31:15;27.90;99.90
15707;DHT22;7953;54.302;10.128;2023-06-04T11:33:43;28.10;99.90
15707;DHT22;7953;54.302;10.128;2023-06-04T11:36:10;28.20;99.90
15707;DHT22;7953;54.302;10.128;2023-06-04T11:38:37;28.20;99.90
15707;DHT22;7953;54.302;10.128;2023-06-04T11:41:04;28.10;99.90
15707;DHT22;7953;54.302;10.128;2023-06-04T11:43:32;27.50;99.90
15707;DHT22;7953;54.302;10.128;2023-06-04T11:46:05;27.60;99.90
15707;DHT22;7953;54.302;10.128;2023-06-04T11:48:33;27.70;99.90
15707;DHT22;7953;54.302;10.128;2023-06-04T11:51:06;27.30;99.90
15707;DHT22;7953;54.302;10.128;2023-06-04T11:53:35;27.00;99.90
15707;DHT22;7953;54.302;10.128;2023-06-04T11:56:04;27.20;99.90
15707;DHT22;7953;54.302;10.128;2023-06-04T11:58:31;27.10;99.90
15707;DHT22;7953;54.302;10.128;2023-06-04T12:01:00;27.30;99.90
15707;DHT22;7953;54.302;10.128;2023-06-04T12:03:35;27.50;99.90
15707;DHT22;7953;54.302;10.128;2023-06-04T12:06:11;28.00;99.90
15707;DHT22;7953;54.302;10.128;2023-06-04T12:08:48;28.10;99.90
15707;DHT22;7953;54.302;10.128;2023-06-04T12:11:29;28.20;99.90
15707;DHT22;7953;54.302;10.128;2023-06-04T12:13:58;28.20;99.90
15707;DHT22;7953;54.302;10.128;2023-06-04T12:16:27;28.30;99.90
15707;DHT22;7953;54.302;10.128;2023-06-04T12:19:05;28.00;99.90
15707;DHT22;7953;54.302;10.128;2023-06-04T12:21:33;28.00;99.90
15707;DHT22;7953;54.302;10.128;2023-06-04T12:24:06;28.30;99.90
15707;DHT22;7953;54.302;10.128;2023-06-04T12:26:34;28.20;99.90
15707;DHT22;7953;54.302;10.128;2023-06-04T12:29:07;28.20;99.90
15707;DHT22;7953;54.302;10.128;2023-06-04T12:31:37;28.20;99.90
15707;DHT22;7953;54.302;10.128;2023-06-04T12:34:04;28.30;99.90
15707;DHT22;7953;54.302;10.128;2023-06-04T12:36:31;28.30;99.90
15707;DHT22;7953;54.302;10.128;2023-06-04T12:39:02;28.10;99.90
15707;DHT22;7953;54.302;10.128;2023-06-04T12:41:29;28.00;99.90
15707;DHT22;7953;54.302;10.128;2023-06-04T12:43:56;27.80;99.90
15707;DHT22;7953;54.302;10.128;2023-06-04T12:46:23;27.80;99.90
15707;DHT22;7953;54.302;10.128;2023-06-04T12:48:53;27.80;99.90
15707;DHT22;7953;54.302;10.128;2023-06-04T12:51:20;27.70;99.90
15707;DHT22;7953;54.302;10.128;2023-06-04T12:53:48;27.60;99.90
15707;DHT22;7953;54.302;10.128;2023-06-04T12:56:15;27.90;99.90
15707;DHT22;7953;54.302;10.128;2023-06-04T12:58:42;28.00;99.90
15707;DHT22;7953;54.302;10.128;2023-06-04T13:01:09;28.00;99.90
15707;DHT22;7953;54.302;10.128;2023-06-04T13:03:37;27.80;99.90
15707;DHT22;7953;54.302;10.128;2023-06-04T13:06:05;27.80;99.90
15707;DHT22;7953;54.302;10.128;2023-06-04T13:08:32;27.60;99.90
15707;DHT22;7953;54.302;10.128;2023-06-04T13:10:59;27.10;99.90
15707;DHT22;7953;54.302;10.128;2023-06-04T13:13:27;26.60;99.90
15707;DHT22;7953;54.302;10.128;2023-06-04T13:15:55;26.30;99.90
15707;DHT22;7953;54.302;10.128;2023-06-04T13:18:22;26.40;99.90
15707;DHT22;7953;54.302;10.128;2023-06-04T13:20:49;26.70;99.90
15707;DHT22;7953;54.302;10.128;2023-06-04T13:23:17;26.90;99.90
15707;DHT22;7953;54.302;10.128;2023-06-04T13:25:44;27.40;99.90
15707;DHT22;7953;54.302;10.128;2023-06-04T13:28:11;27.60;99.90
15707;DHT22;7953;54.302;10.128;2023-06-04T13:30:38;27.50;99.90
15707;DHT22;7953;54.302;10.128;2023-06-04T13:33:05;27.20;99.90
15707;DHT22;7953;54.302;10.128;2023-06-04T13:35:32;27.10;99.90
15707;DHT22;7953;54.302;10.128;2023-06-04T13:37:59;27.30;99.90
15707;DHT22;7953;54.302;10.128;2023-06-04T13:40:28;27.80;99.90
15707;DHT22;7953;54.302;10.128;2023-06-04T13:42:55;28.20;99.90
15707;DHT22;7953;54.302;10.128;2023-06-04T13:45:21;28.30;99.90
15707;DHT22;7953;54.302;10.128;2023-06-04T13:47:49;28.10;99.90
15707;DHT22;7953;54.302;10.128;2023-06-04T13:50:16;27.90;99.90
15707;DHT22;7953;54.302;10.128;2023-06-04T13:52:43;27.80;99.90
15707;DHT22;7953;54.302;10.128;2023-06-04T13:55:11;27.60;99.90
15707;DHT22;7953;54.302;10.128;2023-06-04T13:57:39;27.50;99.90
15707;DHT22;7953;54.302;10.128;2023-06-04T14:00:07;27.30;99.90
15707;DHT22;7953;54.302;10.128;2023-06-04T14:02:35;26.90;99.90
15707;DHT22;7953;54.302;10.128;2023-06-04T14:05:02;26.50;99.90
15707;DHT22;7953;54.302;10.128;2023-06-04T14:07:29;26.10;99.90
15707;DHT22;7953;54.302;10.128;2023-06-04T14:09:55;26.20;99.90
15707;DHT22;7953;54.302;10.128;2023-06-04T14:12:23;26.30;99.90
15707;DHT22;7953;54.302;10.128;2023-06-04T14:14:51;26.30;99.90
15707;DHT22;7953;54.302;10.128;2023-06-04T14:17:18;26.60;99.90
15707;DHT22;7953;54.302;10.128;2023-06-04T14:19:45;26.80;99.90
15707;DHT22;7953;54.302;10.128;2023-06-04T14:22:12;27.10;99.90
15707;DHT22;7953;54.302;10.128;2023-06-04T14:24:41;27.30;99.90
15707;DHT22;7953;54.302;10.128;2023-06-04T14:27:08;27.50;99.90
15707;DHT22;7953;54.302;10.128;2023-06-04T14:29:35;27.60;99.90
15707;DHT22;7953;54.302;10.128;2023-06-04T14:32:04;27.60;99.90
15707;DHT22;7953;54.302;10.128;2023-06-04T14:34:31;27.80;99.90
15707;DHT22;7953;54.302;10.128;2023-06-04T14:36:58;27.90;99.90
15707;DHT22;7953;54.302;10.128;2023-06-04T14:39:26;27.90;99.90
15707;DHT22;7953;54.302;10.128;2023-06-04T14:41:53;27.70;99.90
15707;DHT22;7953;54.302;10.128;2023-06-04T14:44:20;27.60;99.90
15707;DHT22;7953;54.302;10.128;2023-06-04T14:46:49;27.60;99.90
15707;DHT22;7953;54.302;10.128;2023-06-04T14:49:17;27.60;99.90
15707;DHT22;7953;54.302;10.128;2023-06-04T14:51:45;27.60;99.90
15707;DHT22;7953;54.302;10.128;2023-06-04T14:54:12;27.70;99.90
15707;DHT22;7953;54.302;10.128;2023-06-04T14:56:39;27.70;99.90
15707;DHT22;7953;54.302;10.128;2023-06-04T14:59:06;27.50;99.90
15707;DHT22;7953;54.302;10.128;2023-06-04T15:01:36;27.50;99.90
15707;DHT22;7953;54.302;10.128;2023-06-04T15:04:04;27.60;99.90
15707;DHT22;7953;54.302;10.128;2023-06-04T15:06:32;27.50;99.90
15707;DHT22;7953;54.302;10.128;2023-06-04T15:08:59;27.30;99.90
15707;DHT22;7953;54.302;10.128;2023-06-04T15:11:26;27.10;99.90
15707;DHT22;7953;54.302;10.128;2023-06-04T15:13:53;27.00;99.90
15707;DHT22;7953;54.302;10.128;2023-06-04T15:16:20;27.00;99.90
15707;DHT22;7953;54.302;10.128;2023-06-04T15:18:47;26.90;99.90
15707;DHT22;7953;54.302;10.128;2023-06-04T15:21:14;26.90;99.90
15707;DHT22;7953;54.302;10.128;2023-06-04T15:23:43;26.80;99.90
15707;DHT22;7953;54.302;10.128;2023-06-04T15:26:14;26.90;99.90
15707;DHT22;7953;54.302;10.128;2023-06-04T15:28:41;26.80;99.90
15707;DHT22;7953;54.302;10.128;2023-06-04T15:31:08;26.70;99.90
15707;DHT22;7953;54.302;10.128;2023-06-04T15:33:34;26.40;99.90
15707;DHT22;7953;54.302;10.128;2023-06-04T15:36:01;26.30;99.90
15707;DHT22;7953;54.302;10.128;2023-06-04T15:38:28;26.10;99.90